Time;durP1;ratioP1;P1;durP2;ratioP2;P2;SDS_P1;SDS_P2;PMS_P1;PMS_P2;Temp;Humidity;BMP_temperature;BMP_pressure;BME280_temperature;BME280_humidity;BME280_pressure;Samples;Min_cycle;Max_cycle;Signal;HPM_P1;HPM_P2
2022/08/03 00:00:16;;;;;;;0.10;0.10;;;;;;;22.77;55.14;101183.06;5142248;27;20392;-42
2022/08/03 00:02:42;;;;;;;0.10;0.10;;;;;;;22.77;54.94;101180.28;5141247;27;20402;-41
2022/08/03 00:05:08;;;;;;;0.10;0.10;;;;;;;22.78;54.92;101188.28;5140357;27;20051;-40
2022/08/03 00:07:34;;;;;;;0.10;0.10;;;;;;;22.78;54.82;101188.28;5138872;27;20046;-41
2022/08/03 00:09:59;;;;;;;0.10;0.10;;;;;;;22.78;54.86;101184.69;5140452;27;20038;-41
2022/08/03 00:12:25;;;;;;;0.10;0.10;;;;;;;22.76;55.19;101190.56;5141792;27;20084;-40
2022/08/03 00:14:51;;;;;;;0.10;0.10;;;;;;;22.78;54.93;101181.91;5143022;27;20049;-40
2022/08/03 00:17:16;;;;;;;0.10;0.10;;;;;;;22.77;54.76;101178.31;5141380;27;20048;-40
2022/08/03 00:19:42;;;;;;;0.10;0.10;;;;;;;22.77;54.97;101174.72;5141810;27;20051;-40
2022/08/03 00:22:07;;;;;;;0.10;0.10;;;;;;;22.78;54.91;101168.03;5141886;27;20499;-40
2022/08/03 00:24:35;;;;;;;0.10;0.10;;;;;;;22.78;54.96;101176.38;5140110;27;20417;-40
2022/08/03 00:27:00;;;;;;;0.10;0.10;;;;;;;22.78;55.00;101170.81;5141219;27;20311;-41
2022/08/03 00:29:26;;;;;;;0.10;0.10;;;;;;;22.78;55.01;101170.81;5141228;27;20039;-41
2022/08/03 00:31:52;;;;;;;0.10;0.10;;;;;;;22.77;54.94;101164.44;5140800;27;20057;-40
2022/08/03 00:34:25;;;;;;;0.10;0.10;;;;;;;22.77;54.98;101170.00;5143139;27;20047;-40
2022/08/03 00:37:11;;;;;;;0.10;0.10;;;;;;;22.77;54.94;101171.94;5125271;27;20378;-41
2022/08/03 00:39:36;;;;;;;0.10;0.10;;;;;;;22.78;54.93;101165.25;5141524;27;20516;-39
2022/08/03 00:42:03;;;;;;;0.10;0.10;;;;;;;22.77;54.89;101166.38;5141057;27;20462;-42
2022/08/03 00:44:30;;;;;;;0.10;0.10;;;;;;;22.78;55.07;101165.25;5137531;27;20152;-42
2022/08/03 00:46:55;;;;;;;0.10;0.10;;;;;;;22.78;54.86;101165.25;5137664;27;20149;-41
2022/08/03 00:49:21;;;;;;;0.10;0.10;;;;;;;22.77;54.90;101158.88;5144300;27;20043;-41
2022/08/03 00:51:47;;;;;;;0.10;0.10;;;;;;;22.77;54.82;101155.28;5139000;27;20047;-41
2022/08/03 00:54:14;;;;;;;0.10;0.10;;;;;;;22.77;54.91;101156.09;5122005;27;20035;-41
2022/08/03 00:56:40;;;;;;;0.10;0.10;;;;;;;22.76;54.92;101154.47;5141756;27;20457;-41
2022/08/03 00:59:25;;;;;;;0.10;0.10;;;;;;;22.77;54.91;101161.66;5144697;27;20042;-40
2022/08/03 01:01:52;;;;;;;0.10;0.10;;;;;;;22.78;54.96;101159.72;5140126;27;20061;-41
2022/08/03 01:04:18;;;;;;;0.10;0.10;;;;;;;22.76;54.99;101154.47;5138954;27;20066;-40
2022/08/03 01:07:02;;;;;;;0.10;0.10;;;;;;;22.76;54.87;101156.41;5141436;27;20050;-40
2022/08/03 01:09:51;;;;;;;0.10;0.10;;;;;;;22.77;54.85;101155.28;5125008;27;20108;-40
2022/08/03 01:12:38;;;;;;;0.10;0.10;;;;;;;22.77;54.93;101156.09;5123367;27;20071;-39
2022/08/03 01:15:12;;;;;;;0.10;0.10;;;;;;;22.76;54.82;101151.69;5124325;27;20142;-39
2022/08/03 01:17:55;;;;;;;0.10;0.10;;;;;;;22.76;54.88;101148.91;5120905;27;20133;-40
2022/08/03 01:20:23;;;;;;;0.10;0.10;;;;;;;22.76;54.97;101148.91;5122648;27;20187;-41
2022/08/03 01:25:39;;;;;;;0.10;0.10;;;;;;;22.77;54.96;101147.78;5163587;27;20199;-39
2022/08/03 01:28:44;;;;;;;0.10;0.10;;;;;;;22.77;55.05;101152.50;5147227;27;20081;-39
2022/08/03 01:31:10;;;;;;;0.10;0.10;;;;;;;22.77;54.91;101152.50;5130221;27;20079;-38
2022/08/03 01:33:40;;;;;;;0.10;0.10;;;;;;;22.76;54.94;101148.91;5126231;27;20085;-39
2022/08/03 01:36:15;;;;;;;0.10;0.10;;;;;;;22.77;54.92;101156.09;5144245;27;20086;-39
2022/08/03 01:38:43;;;;;;;0.10;0.10;;;;;;;22.76;54.78;101151.69;5145456;27;20566;-39
2022/08/03 01:41:14;;;;;;;0.10;0.10;;;;;;;22.76;55.18;101151.69;5144608;27;20046;-39
2022/08/03 01:43:44;;;;;;;0.10;0.10;;;;;;;22.76;54.84;101143.34;5117608;27;20075;-39
2022/08/03 01:46:30;;;;;;;0.10;0.10;;;;;;;22.76;55.04;101148.91;5115641;27;20043;-38
2022/08/03 01:48:56;;;;;;;0.10;0.10;;;;;;;22.76;54.93;101148.91;5114640;27;20138;-37
2022/08/03 01:51:22;;;;;;;0.10;0.10;;;;;;;22.76;54.98;101153.66;5133821;27;20050;-37
2022/08/03 01:53:50;;;;;;;0.10;0.10;;;;;;;22.76;54.95;101154.47;5134840;27;20051;-37
2022/08/03 01:56:17;;;;;;;0.10;0.10;;;;;;;22.76;54.93;101148.91;5113704;27;20138;-39
2022/08/03 01:58:43;;;;;;;0.10;0.10;;;;;;;22.77;54.94;101149.72;5134257;27;20303;-39
2022/08/03 02:01:09;;;;;;;0.20;0.20;;;;;;;22.76;55.04;101153.66;5132458;27;20076;-37
2022/08/03 02:03:37;;;;;;;0.10;0.10;;;;;;;22.76;54.82;101148.91;5114156;27;20043;-37
2022/08/03 02:06:23;;;;;;;0.10;0.10;;;;;;;22.76;55.00;101148.09;5119176;27;20038;-38
2022/08/03 02:09:11;;;;;;;0.10;0.10;;;;;;;22.76;54.97;101151.69;5117193;27;20393;-40
2022/08/03 02:11:37;;;;;;;0.10;0.10;;;;;;;22.77;54.99;101149.72;5136472;27;20065;-38
2022/08/03 02:14:04;;;;;;;0.10;0.10;;;;;;;22.75;54.98;101147.25;5134083;27;20043;-35
2022/08/03 02:16:32;;;;;;;0.10;0.10;;;;;;;22.76;54.91;101148.09;5111018;27;20521;-37
2022/08/03 02:19:00;;;;;;;0.10;0.10;;;;;;;22.76;55.00;101148.09;5133820;27;20158;-39
2022/08/03 02:21:27;;;;;;;0.10;0.10;;;;;;;22.76;54.83;101148.91;5135022;27;20523;-37
2022/08/03 02:24:13;;;;;;;0.10;0.10;;;;;;;22.76;54.76;101145.31;5103218;27;20047;-39
2022/08/03 02:26:40;;;;;;;0.10;0.10;;;;;;;22.75;55.06;101152.81;5134605;27;20366;-38
2022/08/03 02:29:11;;;;;;;0.10;0.10;;;;;;;22.76;55.03;101151.69;5130806;27;20051;-38
2022/08/03 02:31:37;;;;;;;0.10;0.10;;;;;;;22.76;55.01;101146.13;5133626;27;20469;-39
2022/08/03 02:34:11;;;;;;;0.10;0.10;;;;;;;22.76;54.95;101140.59;5131371;27;20043;-39
2022/08/03 02:36:38;;;;;;;0.10;0.10;;;;;;;22.76;54.88;101137.81;5102157;28;20128;-39
2022/08/03 02:39:05;;;;;;;0.10;0.10;;;;;;;22.76;54.93;101135.03;5117904;28;20523;-38
2022/08/03 02:41:50;;;;;;;0.10;0.10;;;;;;;22.76;54.95;101132.25;5116091;28;20079;-39
2022/08/03 02:44:17;;;;;;;0.10;0.10;;;;;;;22.76;54.86;101128.66;5099808;28;20943;-39
2022/08/03 02:46:45;;;;;;;0.10;0.10;;;;;;;22.77;54.87;101127.53;5115626;28;20067;-37
2022/08/03 02:49:12;;;;;;;0.10;0.10;;;;;;;22.76;54.85;101134.22;5080830;28;20079;-39
2022/08/03 02:51:58;;;;;;;0.10;0.10;;;;;;;22.76;54.88;101139.75;5105705;28;20052;-37
2022/08/03 02:54:25;;;;;;;0.10;0.10;;;;;;;22.76;54.79;101140.59;5117997;28;20776;-39
2022/08/03 02:56:51;;;;;;;0.10;0.10;;;;;;;22.76;54.93;101131.44;5123144;28;20059;-39
2022/08/03 02:59:17;;;;;;;0.10;0.10;;;;;;;22.76;54.94;101136.97;5100445;28;20183;-39
2022/08/03 03:01:43;;;;;;;0.10;0.10;;;;;;;22.76;54.99;101143.34;5118521;28;20477;-37
2022/08/03 03:04:09;;;;;;;0.10;0.10;;;;;;;22.76;54.89;101148.91;5120761;28;20039;-39
2022/08/03 03:06:38;;;;;;;0.10;0.10;;;;;;;22.76;54.92;101136.97;5120093;28;20366;-37
2022/08/03 03:09:05;;;;;;;0.10;0.10;;;;;;;22.76;54.80;101146.13;5117121;28;20036;-39
2022/08/03 03:11:31;;;;;;;0.10;0.10;;;;;;;22.75;54.87;101136.16;5120692;28;20135;-38
2022/08/03 03:13:57;;;;;;;0.10;0.10;;;;;;;22.77;55.04;101144.19;5118881;28;20051;-40
2022/08/03 03:16:24;;;;;;;0.10;0.10;;;;;;;22.76;55.01;101142.53;5119661;28;20538;-37
2022/08/03 03:18:51;;;;;;;0.10;0.10;;;;;;;22.76;54.88;101139.75;5116121;28;20082;-36
2022/08/03 03:21:17;;;;;;;0.10;0.10;;;;;;;22.75;55.06;101138.94;5121147;28;20078;-37
2022/08/03 03:23:43;;;;;;;0.10;0.10;;;;;;;22.76;54.89;101146.13;5100355;28;20108;-37
2022/08/03 03:26:12;;;;;;;0.10;0.10;;;;;;;22.75;55.01;101141.72;5116229;28;20126;-39
2022/08/03 03:28:38;;;;;;;0.10;0.10;;;;;;;22.76;54.91;101134.22;5101650;28;20112;-39
2022/08/03 03:31:05;;;;;;;0.10;0.10;;;;;;;22.76;54.87;101139.75;5117250;28;20432;-39
2022/08/03 03:33:32;;;;;;;0.10;0.10;;;;;;;22.76;54.95;101145.31;5115230;28;20090;-37
2022/08/03 03:35:58;;;;;;;0.10;0.10;;;;;;;22.75;54.94;101141.72;5101481;28;20071;-39
2022/08/03 03:38:23;;;;;;;0.10;0.10;;;;;;;22.76;54.86;101139.75;5119989;28;20047;-37
2022/08/03 03:40:49;;;;;;;0.10;0.10;;;;;;;22.75;54.98;101144.50;5114545;28;20498;-39
2022/08/03 03:43:17;;;;;;;0.10;0.10;;;;;;;22.76;55.04;101145.31;5118161;28;20398;-39
2022/08/03 03:45:43;;;;;;;0.10;0.10;;;;;;;22.75;54.96;101136.16;5114516;28;20078;-38
2022/08/03 03:48:09;;;;;;;0.10;0.10;;;;;;;22.75;54.89;101144.50;5100957;28;20047;-38
2022/08/03 03:50:36;;;;;;;0.10;0.10;;;;;;;22.75;54.89;101138.94;5121542;28;20122;-39
2022/08/03 03:53:03;;;;;;;0.10;0.10;;;;;;;22.75;55.00;101147.25;5119768;28;20536;-36
2022/08/03 03:55:29;;;;;;;0.10;0.10;;;;;;;22.76;54.92;101143.34;5120510;28;20093;-39
2022/08/03 03:57:55;;;;;;;0.10;0.10;;;;;;;22.76;54.94;101145.31;5117194;28;20490;-39
2022/08/03 04:00:21;;;;;;;0.10;0.10;;;;;;;22.76;54.88;101142.53;5101233;28;20070;-38
2022/08/03 04:02:46;;;;;;;0.10;0.10;;;;;;;22.76;54.95;101148.09;5120552;28;20088;-39
2022/08/03 04:10:58;;;;;;;0.10;0.10;;;;;;;22.75;54.98;101143.63;5088166;28;20043;-39
2022/08/03 04:13:28;;;;;;;0.10;0.10;;;;;;;22.76;54.95;101156.41;5101104;28;20196;-40
2022/08/03 04:15:54;;;;;;;0.10;0.10;;;;;;;22.74;54.61;101142.81;5096016;28;20083;-38
2022/08/03 04:18:21;;;;;;;0.10;0.10;;;;;;;22.76;55.03;101145.31;5115949;28;20093;-39
2022/08/03 04:20:47;;;;;;;0.10;0.10;;;;;;;22.75;54.96;101158.38;5115838;28;20071;-37
2022/08/03 04:23:15;;;;;;;0.10;0.10;;;;;;;22.75;54.78;101150.03;5119781;28;20788;-37
2022/08/03 04:25:42;;;;;;;0.10;0.10;;;;;;;22.75;54.95;101154.75;5086603;28;20192;-37
2022/08/03 04:28:08;;;;;;;0.10;0.10;;;;;;;22.75;55.05;101152.81;5116551;28;20079;-37
2022/08/03 04:30:55;;;;;;;0.10;0.10;;;;;;;22.75;55.04;101147.25;5099391;28;20486;-37
2022/08/03 04:33:23;;;;;;;0.10;0.10;;;;;;;22.75;54.98;101152.81;5121457;28;20075;-37
2022/08/03 04:35:57;;;;;;;0.10;0.10;;;;;;;22.76;54.77;101150.88;5104416;28;20039;-37
2022/08/03 04:38:30;;;;;;;0.10;0.10;;;;;;;22.76;54.96;101157.25;5117239;28;20067;-39
2022/08/03 04:40:56;;;;;;;0.10;0.10;;;;;;;22.74;54.98;101148.38;5113659;28;20070;-39
2022/08/03 04:43:23;;;;;;;0.10;0.10;;;;;;;22.75;54.93;101150.03;5118425;28;20043;-38
2022/08/03 04:45:49;;;;;;;0.10;0.10;;;;;;;22.75;54.79;101151.97;5112712;28;20085;-39
2022/08/03 04:48:15;;;;;;;0.10;0.10;;;;;;;22.75;54.94;101160.28;5116951;28;20091;-39
2022/08/03 04:50:41;;;;;;;0.10;0.10;;;;;;;22.75;54.85;101151.97;5112902;28;20047;-39
2022/08/03 04:53:07;;;;;;;0.10;0.10;;;;;;;22.75;55.02;101151.97;5121129;28;20047;-37
2022/08/03 04:55:33;;;;;;;0.10;0.10;;;;;;;22.75;54.93;101163.06;5119268;28;20054;-39
2022/08/03 04:58:00;;;;;;;0.10;0.10;;;;;;;22.75;54.90;101160.28;5094335;27;20082;-38
2022/08/03 05:00:26;;;;;;;0.10;0.10;;;;;;;22.74;55.02;101153.91;5115582;28;20093;-38
2022/08/03 05:02:52;;;;;;;0.10;0.10;;;;;;;22.75;54.80;101163.94;5113693;28;20051;-37
2022/08/03 05:05:18;;;;;;;0.10;0.10;;;;;;;22.74;54.85;101167.81;5121338;28;20134;-39
2022/08/03 05:07:44;;;;;;;0.10;0.10;;;;;;;22.75;54.96;101160.28;5097798;28;20070;-37
2022/08/03 05:10:11;;;;;;;0.10;0.10;;;;;;;22.75;55.05;101174.19;5081524;28;20047;-39
2022/08/03 05:12:42;;;;;;;0.10;0.10;;;;;;;22.74;55.02;101167.81;5102691;28;20081;-38
2022/08/03 05:15:09;;;;;;;0.10;0.10;;;;;;;22.75;55.00;101169.47;5100272;28;20075;-37
2022/08/03 05:17:35;;;;;;;0.10;0.10;;;;;;;22.75;54.95;101174.19;5113218;28;20465;-38
2022/08/03 05:20:02;;;;;;;0.10;0.10;;;;;;;22.74;55.07;101173.34;5116452;28;20078;-39
2022/08/03 05:22:28;;;;;;;0.10;0.10;;;;;;;22.74;54.82;101173.34;5094833;28;20074;-38
2022/08/03 05:24:54;;;;;;;0.10;0.10;;;;;;;22.74;54.81;101170.56;5114299;28;20405;-38
2022/08/03 05:27:19;;;;;;;0.10;0.10;;;;;;;22.76;55.03;101176.69;5115380;28;20058;-38
2022/08/03 05:29:46;;;;;;;0.10;0.10;;;;;;;22.76;54.93;101170.31;5119334;28;20036;-40
2022/08/03 05:32:12;;;;;;;0.10;0.10;;;;;;;22.76;54.84;101170.31;5115299;28;20146;-39
2022/08/03 05:34:37;;;;;;;0.10;0.10;;;;;;;22.77;54.77;101172.78;5117673;28;20489;-40
2022/08/03 05:37:03;;;;;;;0.10;0.10;;;;;;;22.76;54.95;101173.06;5117388;28;20047;-39
2022/08/03 05:39:29;;;;;;;0.10;0.10;;;;;;;22.75;54.81;101168.63;5117486;28;20040;-41
2022/08/03 05:41:54;;;;;;;0.10;0.10;;;;;;;22.76;54.80;101168.34;5118640;28;20062;-40
2022/08/03 05:44:20;;;;;;;0.10;0.10;;;;;;;22.75;54.92;101171.41;5115890;28;20048;-40
2022/08/03 05:46:46;;;;;;;0.10;0.10;;;;;;;22.75;54.86;101166.69;5113581;28;20486;-39
2022/08/03 05:49:12;;;;;;;0.10;0.10;;;;;;;22.75;54.96;101166.69;5115504;28;20052;-40
2022/08/03 05:51:37;;;;;;;0.10;0.10;;;;;;;22.76;54.85;101170.31;5113288;28;20048;-40
2022/08/03 05:54:03;;;;;;;0.10;0.10;;;;;;;22.76;54.85;101173.91;5096356;28;20382;-41
2022/08/03 05:56:29;;;;;;;0.10;0.10;;;;;;;22.75;54.73;101174.19;5114782;28;20047;-39
2022/08/03 05:58:55;;;;;;;0.10;0.10;;;;;;;22.73;54.88;101171.72;5116212;28;20069;-40
2022/08/03 06:01:21;;;;;;;0.10;0.10;;;;;;;22.75;54.94;101171.41;5116219;28;20046;-40
2022/08/03 06:03:47;;;;;;;0.10;0.10;;;;;;;22.74;54.80;101165.03;5100339;28;20094;-40
2022/08/03 06:06:13;;;;;;;0.10;0.10;;;;;;;22.76;55.09;101170.31;5117484;28;20075;-40
2022/08/03 06:08:40;;;;;;;0.10;0.10;;;;;;;22.74;54.86;101165.03;5113355;28;20071;-41
2022/08/03 06:11:05;;;;;;;0.10;0.10;;;;;;;22.76;54.88;101170.31;5118297;27;20123;-39
2022/08/03 06:13:31;;;;;;;0.10;0.10;;;;;;;22.75;54.88;101174.19;5098031;28;20103;-39
2022/08/03 06:15:57;;;;;;;0.10;0.10;;;;;;;22.75;55.01;101174.19;5112549;28;20054;-39
2022/08/03 06:18:23;;;;;;;0.10;0.10;;;;;;;22.76;54.73;101184.19;5121439;28;20043;-39
2022/08/03 06:20:50;;;;;;;0.10;0.10;;;;;;;22.75;54.80;101177.81;5119482;28;20078;-39
2022/08/03 06:23:17;;;;;;;0.10;0.10;;;;;;;22.75;54.86;101176.94;5118515;28;20071;-42
2022/08/03 06:25:44;;;;;;;0.10;0.10;;;;;;;22.76;55.00;101178.63;5121068;28;20035;-39
2022/08/03 06:28:09;;;;;;;0.10;0.10;;;;;;;22.75;54.93;101176.94;5094994;28;20389;-40
2022/08/03 06:30:49;;;;;;;0.10;0.10;;;;;;;22.76;54.96;101184.19;5119285;28;20053;-42
2022/08/03 06:33:15;;;;;;;0.10;0.10;;;;;;;22.75;54.87;101180.59;5119880;28;20052;-39
2022/08/03 06:35:41;;;;;;;0.10;0.10;;;;;;;22.66;57.04;101181.53;5119370;28;20071;-39
2022/08/03 06:38:10;;;;;;;0.10;0.10;;;;;;;22.72;56.42;101180.34;5115412;28;20385;-43
2022/08/03 06:40:38;;;;;;;0.10;0.10;;;;;;;22.76;55.80;101185.00;5118453;28;20067;-46
2022/08/03 06:43:05;;;;;;;0.10;0.10;;;;;;;22.78;56.15;101184.69;5110198;28;20545;-41
2022/08/03 06:45:37;;;;;;;0.10;0.10;;;;;;;22.67;56.99;101188.75;5116329;28;20045;-40
2022/08/03 06:48:04;;;;;;;0.10;0.10;;;;;;;22.64;57.20;101179.06;5120664;28;20130;-41
2022/08/03 06:50:31;;;;;;;0.10;0.10;;;;;;;22.61;57.27;101182.44;5100233;28;20067;-41
2022/08/03 06:52:57;;;;;;;0.10;0.10;;;;;;;22.60;57.51;101185.50;5115148;28;20533;-40
2022/08/03 06:55:22;;;;;;;0.10;0.10;;;;;;;22.62;57.71;101191.56;5110604;28;20073;-40
2022/08/03 06:57:48;;;;;;;0.10;0.10;;;;;;;22.56;57.82;101179.72;5116751;28;20058;-40
2022/08/03 07:00:14;;;;;;;0.10;0.10;;;;;;;22.62;57.80;101188.78;5113566;28;21118;-40
2022/08/03 07:02:40;;;;;;;0.10;0.10;;;;;;;22.58;57.64;101184.97;5100393;28;20479;-38
2022/08/03 07:05:07;;;;;;;0.10;0.10;;;;;;;22.62;57.71;101186.03;5112389;28;20043;-43
2022/08/03 07:07:32;;;;;;;0.10;0.10;;;;;;;22.65;57.48;101191.81;5109063;28;20494;-41
2022/08/03 07:09:58;;;;;;;0.20;0.20;;;;;;;22.58;58.02;101191.34;5110704;28;20163;-40
2022/08/03 07:12:25;;;;;;;0.10;0.10;;;;;;;22.58;58.01;101190.50;5109681;28;20054;-40
2022/08/03 07:14:50;;;;;;;0.20;0.20;;;;;;;22.63;57.93;101190.47;5102586;28;20150;-40
2022/08/03 07:17:17;;;;;;;0.10;0.10;;;;;;;22.65;57.95;101197.34;5108457;28;20054;-39
2022/08/03 07:19:43;;;;;;;0.10;0.10;;;;;;;22.69;57.79;101197.59;5112107;28;20093;-41
2022/08/03 07:22:10;;;;;;;0.10;0.10;;;;;;;22.70;57.88;101205.63;5092044;28;20545;-42
2022/08/03 07:24:35;;;;;;;0.10;0.10;;;;;;;22.70;57.79;101196.47;5111314;28;20142;-43
2022/08/03 07:27:01;;;;;;;0.10;0.10;;;;;;;22.69;57.83;101201.19;5112258;28;20066;-42
2022/08/03 07:29:27;;;;;;;0.10;0.10;;;;;;;22.70;58.03;101204.78;5113777;28;20051;-44
2022/08/03 07:31:53;;;;;;;0.10;0.10;;;;;;;22.71;58.09;101209.22;5109345;28;20055;-42
2022/08/03 07:34:18;;;;;;;0.10;0.10;;;;;;;22.66;57.90;101198.19;5111659;28;20046;-41
2022/08/03 07:36:44;;;;;;;0.10;0.10;;;;;;;22.66;57.90;101195.41;5109253;28;20044;-42
2022/08/03 07:39:10;;;;;;;0.10;0.10;;;;;;;22.66;57.89;101198.19;5091889;28;20049;-43
2022/08/03 07:41:43;;;;;;;0.10;0.10;;;;;;;22.70;58.16;101202.84;5112470;28;20051;-43
2022/08/03 07:44:09;;;;;;;0.15;0.15;;;;;;;22.67;58.02;101200.69;5110352;28;20135;-44
2022/08/03 07:46:35;;;;;;;0.10;0.10;;;;;;;22.62;58.16;101203.50;5109452;28;20051;-42
2022/08/03 07:49:00;;;;;;;0.10;0.10;;;;;;;22.75;57.92;101196.38;5112659;28;20077;-44
2022/08/03 07:51:26;;;;;;;0.10;0.10;;;;;;;22.81;57.66;101199.94;5110857;28;20039;-46
2022/08/03 07:53:52;;;;;;;0.10;0.10;;;;;;;22.76;57.83;101201.66;5106117;28;20651;-39
2022/08/03 07:56:18;;;;;;;0.10;0.10;;;;;;;22.70;57.75;101196.47;5111552;28;20082;-40
2022/08/03 07:58:44;;;;;;;0.10;0.10;;;;;;;22.64;57.60;101198.50;5112206;28;20051;-39
2022/08/03 08:01:09;;;;;;;0.10;0.10;;;;;;;22.59;57.68;101193.00;5110131;28;20044;-42
2022/08/03 08:03:40;;;;;;;0.10;0.10;;;;;;;22.56;57.78;101190.81;5110333;28;20044;-39
2022/08/03 08:06:18;;;;;;;;;;;;;;;22.59;58.12;101193.00;5105590;28;20850;-41
2022/08/03 08:08:43;;;;;;;0.10;0.10;;;;;;;22.57;58.08;101191.66;5091325;28;19976;-39
2022/08/03 08:11:09;;;;;;;0.10;0.10;;;;;;;22.49;58.19;101185.63;5108711;28;20079;-38
2022/08/03 08:13:37;;;;;;;0.10;0.10;;;;;;;22.53;58.61;101185.84;5111119;28;20091;-39
2022/08/03 08:16:03;;;;;;;0.10;0.10;;;;;;;22.60;58.18;101189.09;5110978;28;20143;-39
2022/08/03 08:18:29;;;;;;;0.10;0.10;;;;;;;22.52;58.24;101184.22;5110385;28;20070;-38
2022/08/03 08:20:55;;;;;;;0.10;0.10;;;;;;;22.49;58.23;101193.13;5108886;28;20050;-38
2022/08/03 08:23:22;;;;;;;0.10;0.10;;;;;;;22.47;58.50;101192.59;5110304;28;20117;-37
2022/08/03 08:26:08;;;;;;;0.10;0.10;;;;;;;22.50;58.46;101194.81;5111557;28;20048;-38
2022/08/03 08:28:33;;;;;;;0.10;0.10;;;;;;;22.47;58.18;101193.44;5108992;28;20124;-38
2022/08/03 08:31:00;;;;;;;0.10;0.10;;;;;;;22.46;58.53;101189.00;5108997;28;20043;-38
2022/08/03 08:33:26;;;;;;;0.10;0.10;;;;;;;22.46;58.43;101188.19;5109374;28;20551;-39
2022/08/03 08:36:07;;;;;;;0.10;0.10;;;;;;;22.45;58.25;101187.38;5110397;28;20048;-37
2022/08/03 08:38:41;;;;;;;0.10;0.10;;;;;;;;;;5107863;28;20048;-38
2022/08/03 08:41:08;;;;;;;0.10;0.10;;;;;;;22.58;58.27;101185.78;5108522;28;20182;-41
2022/08/03 08:43:34;;;;;;;0.10;0.10;;;;;;;22.58;58.23;101182.19;5110511;28;20063;-37
2022/08/03 08:46:00;;;;;;;0.10;0.10;;;;;;;22.53;58.49;101181.13;5107221;28;20108;-38
2022/08/03 08:48:27;;;;;;;0.10;0.10;;;;;;;;;;5106380;28;20051;-37
2022/08/03 08:50:54;;;;;;;0.10;0.10;;;;;;;22.52;58.52;101184.22;5107731;28;20067;-38
2022/08/03 08:53:20;;;;;;;0.10;0.10;;;;;;;22.47;58.55;101192.59;5109574;28;20129;-39
2022/08/03 08:55:54;;;;;;;0.10;0.10;;;;;;;22.53;58.37;101181.13;5109912;28;20146;-38
2022/08/03 08:58:28;;;;;;;0.10;0.10;;;;;;;22.56;58.27;101181.69;5075801;28;20054;-38
2022/08/03 09:00:53;;;;;;;0.10;0.10;;;;;;;22.58;58.25;101182.19;5090164;28;20067;-39
2022/08/03 09:03:20;;;;;;;0.10;0.10;;;;;;;;;;5111501;28;20051;-39
2022/08/03 09:05:56;;;;;;;0.10;0.10;;;;;;;22.47;58.25;101174.00;5109552;28;20055;-40
2022/08/03 09:08:22;;;;;;;0.10;0.10;;;;;;;22.47;58.29;101176.78;5111983;28;20134;-38
2022/08/03 09:10:47;;;;;;;0.10;0.10;;;;;;;22.47;58.48;101179.56;5106014;28;20126;-37
2022/08/03 09:13:13;;;;;;;0.10;0.10;;;;;;;22.47;58.37;101181.50;5109066;28;20073;-39
2022/08/03 09:15:39;;;;;;;0.10;0.10;;;;;;;;;;5108452;28;20397;-39
2022/08/03 09:18:04;;;;;;;0.38;0.38;;;;;;;22.54;58.41;101182.81;5108793;28;20048;-39
2022/08/03 09:20:32;;;;;;;0.10;0.10;;;;;;;22.52;58.28;101189.75;5109768;28;20533;-39
2022/08/03 09:23:00;;;;;;;0.10;0.10;;;;;;;22.49;58.37;101185.63;5088049;28;20035;-40
2022/08/03 09:25:34;;;;;;;;;;;;;;;22.59;58.19;101183.88;5074317;28;20082;-38
2022/08/03 09:28:07;;;;;;;0.10;0.10;;;;;;;22.65;58.08;101191.00;5092039;28;19959;-40
2022/08/03 09:30:33;;;;;;;0.10;0.10;;;;;;;22.68;57.82;101184.84;5088295;28;20444;-38
2022/08/03 09:33:02;;;;;;;0.10;0.10;;;;;;;22.64;57.98;101175.47;5108953;28;20058;-36
2022/08/03 09:35:27;;;;;;;0.10;0.10;;;;;;;22.62;58.08;101181.28;5109158;28;20116;-40
2022/08/03 09:38:17;;;;;;;0.10;0.10;;;;;;;22.56;57.95;101185.28;5093090;28;20101;-38
2022/08/03 09:40:44;;;;;;;0.10;0.10;;;;;;;22.54;58.33;101185.59;5109387;28;20112;-41
2022/08/03 09:43:10;;;;;;;0.10;0.10;;;;;;;22.59;58.03;101184.69;5088300;28;20047;-39
2022/08/03 09:45:37;;;;;;;0.10;0.10;;;;;;;22.60;58.10;101179.97;5090621;28;20197;-36
2022/08/03 09:48:24;;;;;;;0.10;0.10;;;;;;;22.54;58.23;101177.25;5094477;28;20098;-40
2022/08/03 09:51:04;;;;;;;0.10;0.10;;;;;;;;;;5099683;28;20326;-38
2022/08/03 09:53:50;;;;;;;0.10;0.10;;;;;;;22.64;57.99;101176.28;5095706;28;20131;-38
2022/08/03 09:56:40;;;;;;;0.10;0.10;;;;;;;22.65;57.98;101171.56;5108634;28;20048;-38
2022/08/03 09:59:06;;;;;;;0.10;0.10;;;;;;;22.64;58.05;101172.69;5112718;28;20074;-38
2022/08/03 10:01:33;;;;;;;0.10;0.10;;;;;;;22.59;58.28;101176.34;5112092;28;20047;-38
2022/08/03 10:03:59;;;;;;;0.10;0.10;;;;;;;22.65;57.91;101180.72;5119191;28;20101;-39
2022/08/03 10:06:30;;;;;;;0.10;0.10;;;;;;;22.69;57.92;101178.16;5117946;28;20043;-38
2022/08/03 10:09:15;;;;;;;0.10;0.10;;;;;;;22.70;57.91;101171.47;5098815;28;20084;-39
2022/08/03 10:11:42;;;;;;;0.10;0.10;;;;;;;22.71;57.71;101173.97;5097759;28;20262;-39
2022/08/03 10:14:10;;;;;;;0.10;0.10;;;;;;;22.72;57.48;101161.75;5116225;28;20138;-39
2022/08/03 10:16:38;;;;;;;0.10;0.10;;;;;;;22.73;57.80;101160.59;5093851;28;20084;-40
2022/08/03 10:19:05;;;;;;;0.10;0.10;;;;;;;22.75;56.97;101163.06;5112062;28;20090;-38
2022/08/03 10:21:34;;;;;;;0.10;0.10;;;;;;;22.75;57.04;101161.16;5110907;28;20459;-40
2022/08/03 10:24:03;;;;;;;0.10;0.10;;;;;;;22.75;57.13;101160.28;5094043;28;20067;-37
2022/08/03 10:26:31;;;;;;;0.10;0.10;;;;;;;22.74;57.38;101153.91;5111762;28;20131;-38
2022/08/03 10:28:57;;;;;;;;;;;;;;;22.75;56.84;101154.75;5096436;28;20546;-39
2022/08/03 10:31:23;;;;;;;0.10;0.10;;;;;;;22.73;57.04;101152.28;5106382;28;19927;-38
2022/08/03 10:33:50;;;;;;;0.10;0.10;;;;;;;22.74;56.83;101144.78;5112106;28;20598;-37
2022/08/03 10:36:22;;;;;;;0.10;0.10;;;;;;;22.76;57.33;101145.31;5093234;28;20093;-37
2022/08/03 10:38:53;;;;;;;0.10;0.10;;;;;;;22.75;57.04;101140.84;5112564;28;20039;-36
2022/08/03 10:41:20;;;;;;;0.10;0.10;;;;;;;22.72;57.17;101133.16;5093206;28;20043;-37
2022/08/03 10:43:55;;;;;;;0.10;0.10;;;;;;;22.72;57.21;101147.03;5094466;28;20123;-37
2022/08/03 10:46:21;;;;;;;0.10;0.10;;;;;;;22.68;57.28;101138.47;5089538;28;20134;-39
2022/08/03 10:48:49;;;;;;;0.10;0.10;;;;;;;22.70;57.43;101132.59;5090328;28;20048;-37
2022/08/03 10:51:15;;;;;;;0.10;0.10;;;;;;;22.67;57.49;101127.69;5093266;28;20060;-37
2022/08/03 10:53:42;;;;;;;0.10;0.10;;;;;;;22.66;57.69;101134.34;5112577;28;20046;-38
2022/08/03 10:59:11;;;;;;;0.10;0.10;;;;;;;22.61;57.48;101128.88;5157066;27;20199;-38
2022/08/03 11:01:55;;;;;;;0.10;0.10;;;;;;;22.62;57.65;101124.94;5135426;27;20042;-37
2022/08/03 11:04:28;;;;;;;0.10;0.10;;;;;;;22.63;57.74;101124.66;5115820;27;20560;-37
2022/08/03 11:09:53;;;;;;;0.10;0.10;;;;;;;22.69;57.78;101114.31;5166810;27;20209;-36
2022/08/03 11:12:25;;;;;;;0.10;0.10;;;;;;;22.70;57.84;101121.50;5165160;27;20453;-35
2022/08/03 11:14:59;;;;;;;0.10;0.10;;;;;;;22.75;57.76;101107.53;5146870;27;20046;-36
2022/08/03 11:17:25;;;;;;;0.10;0.10;;;;;;;22.75;57.52;101111.19;5125201;27;20133;-36
2022/08/03 11:19:52;;;;;;;0.10;0.10;;;;;;;22.78;57.02;101115.28;5143382;27;20038;-37
2022/08/03 11:22:23;;;;;;;0.10;0.10;;;;;;;22.78;57.49;101107.78;5163763;27;20129;-37
2022/08/03 11:27:32;;;;;;;0.10;0.10;;;;;;;22.75;57.50;101105.63;5157589;27;20645;-37
2022/08/03 11:30:08;;;;;;;0.10;0.10;;;;;;;22.76;57.37;101107.25;5158347;27;20043;-36
2022/08/03 11:35:19;;;;;;;0.10;0.10;;;;;;;22.74;57.31;101092.84;5154570;27;20121;-36
2022/08/03 11:38:02;;;;;;;0.10;0.10;;;;;;;22.74;57.12;101103.94;5118706;27;20042;-37
2022/08/03 11:40:47;;;;;;;0.10;0.10;;;;;;;22.76;57.14;101106.44;5112271;27;20120;-38
2022/08/03 11:46:16;;;;;;;0.10;0.10;;;;;;;22.72;56.95;101114.53;5175374;27;20113;-37
2022/08/03 11:49:02;;;;;;;0.10;0.10;;;;;;;22.76;57.22;101106.44;5140652;27;20080;-37
2022/08/03 11:51:36;;;;;;;0.10;0.10;;;;;;;22.76;56.84;101101.72;5140112;27;20066;-36
2022/08/03 11:54:04;;;;;;;0.10;0.10;;;;;;;22.75;57.05;101096.44;5154531;27;20126;-36
2022/08/03 11:56:47;;;;;;;0.10;0.10;;;;;;;22.77;56.91;101091.44;5119272;27;20366;-36
2022/08/03 11:59:13;;;;;;;0.10;0.10;;;;;;;22.78;56.71;101093.88;5136915;27;20482;-38